Polfoss — V2PN7 — position and weather

sailwx.info

Track history (hours):
 
Tides and Currents Weather Stations Pressure Air Temp Water Temp Dewpoint Dewpoint Depression Visibility Wind Speed Wind Dir Waves Ship Positions

Polfoss

Last reported at 2015-Jul-28 20:33 UTC. Time now 2015-Jul-29 11:30 UTC.
Position N 69°41' E 019°00'.

Length 82 m; draft 5 m.

Type: Cargo ship. MMSI: 305081000.

Date/timePositionNaut miles runAvg speedWind from/ knotsBaromVisibWave heightAir tempDewpointWater temp
2015-Jul-28 20:33N 69°41' E 019°00'0 0.4
2015-Jul-28 19:33N 69°41' E 018°59'0 0.0
2015-Jul-28 18:33N 69°41' E 018°59'0 0.0
2015-Jul-28 17:33N 69°41' E 018°59'0 0.0
2015-Jul-28 16:33N 69°41' E 018°59'1 1.3
2015-Jul-28 15:33N 69°39' E 018°58'2 1.8
2015-Jul-28 14:33N 69°38' E 018°56'155 8.4
2015-Jul-27 20:06N 67°42' E 014°14'815.0
2015-Jul-27 19:33N 67°34' E 014°20'1413.8
2015-Jul-27 18:33N 67°20' E 014°21'1515.2
2015-Jul-27 17:33N 67°07' E 014°01'1514.8
2015-Jul-27 16:33N 66°58' E 013°31'1614.5
2015-Jul-27 15:26N 66°44' E 013°11'1314.4
2015-Jul-27 14:33N 66°32' E 012°58'7414.2
2015-Jul-27 09:18N 65°21' E 012°03'1115.2
2015-Jul-27 08:33N 65°11' E 011°51'1414.5
2015-Jul-27 07:33N 64°58' E 011°35'1515.0
2015-Jul-27 06:33N 64°49' E 011°08'5614.0
2015-Jul-27 02:31N 64°03' E 009°50'1313.6
2015-Jul-27 01:33N 63°51' E 009°39'2 2.0
2015-Jul-27 00:33N 63°49' E 009°38'0 0.0
2015-Jul-26 23:33N 63°49' E 009°38'0 0.0
2015-Jul-26 22:33N 63°49' E 009°38'0 0.0
2015-Jul-26 21:33N 63°49' E 009°38'0 0.0
2015-Jul-26 20:33N 63°49' E 009°38'8 8.3
2015-Jul-26 19:33N 63°42' E 009°30'6013.6
2015-Jul-26 15:10N 63°06' E 007°42'1 1.8
2015-Jul-26 14:33N 63°07' E 007°44'0 0.0
2015-Jul-26 13:33N 63°07' E 007°44'202 8.0
2015-Jul-25 12:13N 59°56' E 005°29'914.1
2015-Jul-25 11:33N 59°46' E 005°33'1414.1
2015-Jul-25 10:33N 59°35' E 005°16'1312.6
2015-Jul-25 09:32N 59°23' E 005°18'1413.7
2015-Jul-25 08:34N 59°10' E 005°22'1413.7
2015-Jul-25 07:34N 59°02' E 005°44'5 5.3
2015-Jul-25 06:33N 58°57' E 005°45'0 0.0
2015-Jul-25 05:33N 58°57' E 005°45'0 0.0
2015-Jul-25 04:33N 58°57' E 005°45'0 0.0
2015-Jul-25 03:33N 58°57' E 005°45'5 5.2
2015-Jul-25 02:33N 58°51' E 005°45'0 0.0
2015-Jul-25 01:33N 58°51' E 005°45'10 9.7
2015-Jul-25 00:34N 59°01' E 005°48'9 9.2
2015-Jul-24 23:33N 58°56' E 005°33'33414.5
2015-Jul-24 00:28N 54°01' E 000°48'1314.5
2015-Jul-23 23:33N 53°50' E 000°36'1414.3
2015-Jul-23 22:33N 53°38' E 000°22'1110.8
2015-Jul-23 21:33N 53°34' E 000°06'6 6.0
2015-Jul-23 20:32N 53°35' W 000°04'0 0.0
2015-Jul-23 19:32N 53°35' W 000°04'0 0.0
2015-Jul-23 18:31N 53°35' W 000°04'0 0.0
2015-Jul-23 17:34N 53°35' W 000°04'0 0.0
2015-Jul-23 16:33N 53°35' W 000°04'0 0.0
2015-Jul-23 15:32N 53°35' W 000°04'0 0.0
2015-Jul-23 14:32N 53°35' W 000°04'0 0.0
2015-Jul-23 13:31N 53°35' W 000°04'0 0.0
2015-Jul-23 12:30N 53°35' W 000°04'0 0.0
2015-Jul-23 11:33N 53°35' W 000°04'0 0.0
2015-Jul-23 10:32N 53°35' W 000°04'0 0.0
2015-Jul-23 09:29N 53°35' W 000°04'0 0.0
2015-Jul-23 08:31N 53°35' W 000°04'0 0.0
2015-Jul-23 07:34N 53°35' W 000°04'0 0.0
2015-Jul-23 06:33N 53°35' W 000°04'0 0.0
2015-Jul-23 05:32N 53°35' W 000°04'0 0.0
2015-Jul-23 04:32N 53°35' W 000°04'0 0.0
2015-Jul-23 03:28N 53°35' W 000°04'0 0.0
2015-Jul-23 02:30N 53°35' W 000°04'0 0.0
2015-Jul-23 01:33N 53°35' W 000°04'0 0.0
2015-Jul-23 00:32N 53°35' W 000°04'0 0.0
2015-Jul-22 23:32N 53°35' W 000°04'0 0.0
2015-Jul-22 22:31N 53°35' W 000°04'0 0.2
2015-Jul-22 21:30N 53°35' W 000°04'4 4.0
2015-Jul-22 20:33N 53°35' E 000°02'0 0.4
2015-Jul-22 19:32N 53°35' E 000°03'0 0.0
2015-Jul-22 18:32N 53°35' E 000°03'0 0.0
2015-Jul-22 17:31N 53°35' E 000°03'0 0.0
2015-Jul-22 16:33N 53°35' E 000°03'0 0.0
2015-Jul-22 15:33N 53°35' E 000°03'0 0.0
2015-Jul-22 14:32N 53°35' E 000°03'0 0.0
2015-Jul-22 13:32N 53°35' E 000°03'0 0.2
2015-Jul-22 12:33N 53°35' E 000°03'7 6.7
2015-Jul-22 11:33N 53°33' E 000°14'4711.6
2015-Jul-22 07:33N 53°13' E 001°24'1313.0
2015-Jul-22 06:33N 53°08' E 001°44'1514.6
2015-Jul-22 05:33N 53°01' E 002°06'6813.3
2015-Jul-22 00:28N 52°31' E 003°46'1213.0
2015-Jul-21 23:33N 52°31' E 004°06'1312.8
2015-Jul-21 22:33N 52°29' E 004°26'6 6.3
2015-Jul-21 21:33N 52°28' E 004°37'2 2.0
2015-Jul-21 20:33N 52°28' E 004°40'0 0.0
2015-Jul-21 19:33N 52°28' E 004°40'0 0.0
2015-Jul-21 18:32N 52°28' E 004°40'0 0.0
2015-Jul-21 17:31N 52°28' E 004°40'0 0.0
2015-Jul-21 16:31N 52°28' E 004°40'0 0.0
2015-Jul-21 15:33N 52°28' E 004°40'0 0.0
2015-Jul-21 14:32N 52°28' E 004°40'0 0.0
2015-Jul-21 13:32N 52°28' E 004°40'0 0.0
2015-Jul-21 12:31N 52°28' E 004°40'0 0.0
2015-Jul-21 11:31N 52°28' E 004°40'0 0.0
2015-Jul-21 10:33N 52°28' E 004°40'0 0.0
2015-Jul-21 09:32N 52°28' E 004°40'0 0.0
2015-Jul-21 08:32N 52°28' E 004°40'0 0.0
2015-Jul-21 06:33N 52°28' E 004°40'0 0.0
2015-Jul-21 05:33N 52°28' E 004°40'0 0.0
2015-Jul-21 04:32N 52°28' E 004°40'0 0.0
2015-Jul-21 03:32N 52°28' E 004°40'0 0.0
2015-Jul-21 02:31N 52°28' E 004°40'0 0.0
2015-Jul-21 01:33N 52°28' E 004°40'0 0.0
2015-Jul-21 00:33N 52°28' E 004°40'0 0.0
2015-Jul-20 23:32N 52°28' E 004°40'0 0.0
2015-Jul-20 22:31N 52°28' E 004°40'0 0.0
2015-Jul-20 21:31N 52°28' E 004°40'0 0.0
2015-Jul-20 20:33N 52°28' E 004°40'0 0.0
2015-Jul-20 19:32N 52°28' E 004°40'0 0.0
2015-Jul-20 18:32N 52°28' E 004°40'0 0.0
2015-Jul-20 17:28N 52°28' E 004°40'0 0.0
2015-Jul-20 16:31N 52°28' E 004°40'0 0.0
2015-Jul-20 15:33N 52°28' E 004°40'0 0.0
2015-Jul-20 14:32N 52°28' E 004°40'0 0.0
2015-Jul-20 13:32N 52°28' E 004°40'0 0.0
2015-Jul-20 12:31N 52°28' E 004°40'0 0.0
2015-Jul-20 11:33N 52°28' E 004°40'0 0.0
2015-Jul-20 10:30N 52°28' E 004°40'0 0.0
2015-Jul-20 09:32N 52°28' E 004°40'0 0.0
2015-Jul-20 08:31N 52°28' E 004°40'0 0.0
2015-Jul-20 07:31N 52°28' E 004°40'0 0.0
2015-Jul-20 06:33N 52°28' E 004°40'0 0.0
2015-Jul-20 05:33N 52°28' E 004°40'0 0.0
2015-Jul-20 04:32N 52°28' E 004°40'0 0.4
2015-Jul-20 03:34N 52°28' E 004°39'4 4.1
2015-Jul-20 02:34N 52°28' E 004°33'1212.4
2015-Jul-20 01:34N 52°40' E 004°29'1515.0
2015-Jul-20 00:34N 52°55' E 004°29'6613.1
2015-Jul-19 19:29N 53°60' E 004°54'28813.1
2015-Jul-18 21:32N 58°47' E 005°18'1111.5
2015-Jul-18 20:33N 58°59' E 005°18'  
Track history (hours):
 
Tides and Currents Weather Stations Pressure Air Temp Water Temp Dewpoint Dewpoint Depression Visibility Wind Speed Wind Dir Waves Ship Positions

Polfoss

Last reported at 2015-Jul-28 20:33 UTC. Time now 2015-Jul-29 11:30 UTC.
Position N 69°41' E 019°00'.

Length 82 m; draft 5 m.

Type: Cargo ship. MMSI: 305081000.

Date/timePositionNaut miles runAvg speedWind from/ knotsBaromVisibWave heightAir tempDewpointWater temp
2015-Jul-28 20:33N 69°41' E 019°00'0 0.4
2015-Jul-28 19:33N 69°41' E 018°59'0 0.0
2015-Jul-28 18:33N 69°41' E 018°59'0 0.0
2015-Jul-28 17:33N 69°41' E 018°59'0 0.0
2015-Jul-28 16:33N 69°41' E 018°59'1 1.3
2015-Jul-28 15:33N 69°39' E 018°58'2 1.8
2015-Jul-28 14:33N 69°38' E 018°56'155 8.4
2015-Jul-27 20:06N 67°42' E 014°14'815.0
2015-Jul-27 19:33N 67°34' E 014°20'1413.8
2015-Jul-27 18:33N 67°20' E 014°21'1515.2
2015-Jul-27 17:33N 67°07' E 014°01'1514.8
2015-Jul-27 16:33N 66°58' E 013°31'1614.5
2015-Jul-27 15:26N 66°44' E 013°11'1314.4
2015-Jul-27 14:33N 66°32' E 012°58'7414.2
2015-Jul-27 09:18N 65°21' E 012°03'1115.2
2015-Jul-27 08:33N 65°11' E 011°51'1414.5
2015-Jul-27 07:33N 64°58' E 011°35'1515.0
2015-Jul-27 06:33N 64°49' E 011°08'5614.0
2015-Jul-27 02:31N 64°03' E 009°50'1313.6
2015-Jul-27 01:33N 63°51' E 009°39'2 2.0
2015-Jul-27 00:33N 63°49' E 009°38'0 0.0
2015-Jul-26 23:33N 63°49' E 009°38'0 0.0
2015-Jul-26 22:33N 63°49' E 009°38'0 0.0
2015-Jul-26 21:33N 63°49' E 009°38'0 0.0
2015-Jul-26 20:33N 63°49' E 009°38'8 8.3
2015-Jul-26 19:33N 63°42' E 009°30'6013.6
2015-Jul-26 15:10N 63°06' E 007°42'1 1.8
2015-Jul-26 14:33N 63°07' E 007°44'0 0.0
2015-Jul-26 13:33N 63°07' E 007°44'202 8.0
2015-Jul-25 12:13N 59°56' E 005°29'914.1
2015-Jul-25 11:33N 59°46' E 005°33'1414.1
2015-Jul-25 10:33N 59°35' E 005°16'1312.6
2015-Jul-25 09:32N 59°23' E 005°18'1413.7
2015-Jul-25 08:34N 59°10' E 005°22'1413.7
2015-Jul-25 07:34N 59°02' E 005°44'5 5.3
2015-Jul-25 06:33N 58°57' E 005°45'0 0.0
2015-Jul-25 05:33N 58°57' E 005°45'0 0.0
2015-Jul-25 04:33N 58°57' E 005°45'0 0.0
2015-Jul-25 03:33N 58°57' E 005°45'5 5.2
2015-Jul-25 02:33N 58°51' E 005°45'0 0.0
2015-Jul-25 01:33N 58°51' E 005°45'10 9.7
2015-Jul-25 00:34N 59°01' E 005°48'9 9.2
2015-Jul-24 23:33N 58°56' E 005°33'33414.5
2015-Jul-24 00:28N 54°01' E 000°48'1314.5
2015-Jul-23 23:33N 53°50' E 000°36'1414.3
2015-Jul-23 22:33N 53°38' E 000°22'1110.8
2015-Jul-23 21:33N 53°34' E 000°06'6 6.0
2015-Jul-23 20:32N 53°35' W 000°04'0 0.0
2015-Jul-23 19:32N 53°35' W 000°04'0 0.0
2015-Jul-23 18:31N 53°35' W 000°04'0 0.0
2015-Jul-23 17:34N 53°35' W 000°04'0 0.0
2015-Jul-23 16:33N 53°35' W 000°04'0 0.0
2015-Jul-23 15:32N 53°35' W 000°04'0 0.0
2015-Jul-23 14:32N 53°35' W 000°04'0 0.0
2015-Jul-23 13:31N 53°35' W 000°04'0 0.0
2015-Jul-23 12:30N 53°35' W 000°04'0 0.0
2015-Jul-23 11:33N 53°35' W 000°04'0 0.0
2015-Jul-23 10:32N 53°35' W 000°04'0 0.0
2015-Jul-23 09:29N 53°35' W 000°04'0 0.0
2015-Jul-23 08:31N 53°35' W 000°04'0 0.0
2015-Jul-23 07:34N 53°35' W 000°04'0 0.0
2015-Jul-23 06:33N 53°35' W 000°04'0 0.0
2015-Jul-23 05:32N 53°35' W 000°04'0 0.0
2015-Jul-23 04:32N 53°35' W 000°04'0 0.0
2015-Jul-23 03:28N 53°35' W 000°04'0 0.0
2015-Jul-23 02:30N 53°35' W 000°04'0 0.0
2015-Jul-23 01:33N 53°35' W 000°04'0 0.0
2015-Jul-23 00:32N 53°35' W 000°04'0 0.0
2015-Jul-22 23:32N 53°35' W 000°04'0 0.0
2015-Jul-22 22:31N 53°35' W 000°04'0 0.2
2015-Jul-22 21:30N 53°35' W 000°04'4 4.0
2015-Jul-22 20:33N 53°35' E 000°02'0 0.4
2015-Jul-22 19:32N 53°35' E 000°03'0 0.0
2015-Jul-22 18:32N 53°35' E 000°03'0 0.0
2015-Jul-22 17:31N 53°35' E 000°03'0 0.0
2015-Jul-22 16:33N 53°35' E 000°03'0 0.0
2015-Jul-22 15:33N 53°35' E 000°03'0 0.0
2015-Jul-22 14:32N 53°35' E 000°03'0 0.0
2015-Jul-22 13:32N 53°35' E 000°03'0 0.2
2015-Jul-22 12:33N 53°35' E 000°03'7 6.7
2015-Jul-22 11:33N 53°33' E 000°14'4711.6
2015-Jul-22 07:33N 53°13' E 001°24'1313.0
2015-Jul-22 06:33N 53°08' E 001°44'1514.6
2015-Jul-22 05:33N 53°01' E 002°06'6813.3
2015-Jul-22 00:28N 52°31' E 003°46'1213.0
2015-Jul-21 23:33N 52°31' E 004°06'1312.8
2015-Jul-21 22:33N 52°29' E 004°26'6 6.3
2015-Jul-21 21:33N 52°28' E 004°37'2 2.0
2015-Jul-21 20:33N 52°28' E 004°40'0 0.0
2015-Jul-21 19:33N 52°28' E 004°40'0 0.0
2015-Jul-21 18:32N 52°28' E 004°40'0 0.0
2015-Jul-21 17:31N 52°28' E 004°40'0 0.0
2015-Jul-21 16:31N 52°28' E 004°40'0 0.0
2015-Jul-21 15:33N 52°28' E 004°40'0 0.0
2015-Jul-21 14:32N 52°28' E 004°40'0 0.0
2015-Jul-21 13:32N 52°28' E 004°40'0 0.0
2015-Jul-21 12:31N 52°28' E 004°40'0 0.0
2015-Jul-21 11:31N 52°28' E 004°40'0 0.0
2015-Jul-21 10:33N 52°28' E 004°40'0 0.0
2015-Jul-21 09:32N 52°28' E 004°40'0 0.0
2015-Jul-21 08:32N 52°28' E 004°40'0 0.0
2015-Jul-21 06:33N 52°28' E 004°40'0 0.0
2015-Jul-21 05:33N 52°28' E 004°40'0 0.0
2015-Jul-21 04:32N 52°28' E 004°40'0 0.0
2015-Jul-21 03:32N 52°28' E 004°40'0 0.0
2015-Jul-21 02:31N 52°28' E 004°40'0 0.0
2015-Jul-21 01:33N 52°28' E 004°40'0 0.0
2015-Jul-21 00:33N 52°28' E 004°40'0 0.0
2015-Jul-20 23:32N 52°28' E 004°40'0 0.0
2015-Jul-20 22:31N 52°28' E 004°40'0 0.0
2015-Jul-20 21:31N 52°28' E 004°40'0 0.0
2015-Jul-20 20:33N 52°28' E 004°40'0 0.0
2015-Jul-20 19:32N 52°28' E 004°40'0 0.0
2015-Jul-20 18:32N 52°28' E 004°40'0 0.0
2015-Jul-20 17:28N 52°28' E 004°40'0 0.0
2015-Jul-20 16:31N 52°28' E 004°40'0 0.0
2015-Jul-20 15:33N 52°28' E 004°40'0 0.0
2015-Jul-20 14:32N 52°28' E 004°40'0 0.0
2015-Jul-20 13:32N 52°28' E 004°40'0 0.0
2015-Jul-20 12:31N 52°28' E 004°40'0 0.0
2015-Jul-20 11:33N 52°28' E 004°40'0 0.0
2015-Jul-20 10:30N 52°28' E 004°40'0 0.0
2015-Jul-20 09:32N 52°28' E 004°40'0 0.0
2015-Jul-20 08:31N 52°28' E 004°40'0 0.0
2015-Jul-20 07:31N 52°28' E 004°40'0 0.0
2015-Jul-20 06:33N 52°28' E 004°40'0 0.0
2015-Jul-20 05:33N 52°28' E 004°40'0 0.0
2015-Jul-20 04:32N 52°28' E 004°40'0 0.4
2015-Jul-20 03:34N 52°28' E 004°39'4 4.1
2015-Jul-20 02:34N 52°28' E 004°33'1212.4
2015-Jul-20 01:34N 52°40' E 004°29'1515.0
2015-Jul-20 00:34N 52°55' E 004°29'6613.1
2015-Jul-19 19:29N 53°60' E 004°54'28813.1
2015-Jul-18 21:32N 58°47' E 005°18'1111.5
2015-Jul-18 20:33N 58°59' E 005°18'  

Dump ship's entire track history